createdAt,value
2019-03-15T00:00:24.685Z,8.41
2019-03-15T00:01:24.666Z,8.36
2019-03-15T00:02:24.662Z,8.34
2019-03-15T00:03:25.477Z,8.40
2019-03-15T00:04:24.602Z,8.41
2019-03-15T00:05:25.536Z,8.37
2019-03-15T00:06:25.332Z,8.33
2019-03-15T00:07:24.539Z,8.38
2019-03-15T00:08:24.519Z,8.41
2019-03-15T00:09:25.006Z,8.41
2019-03-15T00:10:24.476Z,8.47
2019-03-15T00:11:24.461Z,8.48
2019-03-15T00:12:24.977Z,8.48
2019-03-15T00:13:24.415Z,8.48
2019-03-15T00:14:24.398Z,8.50
2019-03-15T00:15:25.467Z,8.55
2019-03-15T00:16:24.364Z,8.59
2019-03-15T00:17:24.997Z,8.70
2019-03-15T00:18:24.338Z,8.56
2019-03-15T00:19:24.296Z,8.56
2019-03-15T00:20:24.281Z,8.59
2019-03-15T00:21:24.277Z,8.70
2019-03-15T00:22:24.259Z,8.65
2019-03-15T00:23:24.231Z,8.73
2019-03-15T00:24:24.186Z,8.68
2019-03-15T00:25:24.167Z,8.55
2019-03-15T00:26:24.225Z,8.62
2019-03-15T00:27:24.120Z,8.53
2019-03-15T00:28:24.115Z,8.53
2019-03-15T00:29:24.169Z,8.68
2019-03-15T00:30:24.057Z,8.56
2019-03-15T00:31:24.038Z,8.59
2019-03-15T00:32:24.030Z,8.62
2019-03-15T00:33:24.507Z,8.76
2019-03-15T00:34:23.973Z,8.77
2019-03-15T00:35:23.950Z,8.77
2019-03-15T00:36:23.931Z,8.73
2019-03-15T00:37:23.911Z,8.70
2019-03-15T00:38:23.998Z,8.55
2019-03-15T00:39:23.882Z,8.55
2019-03-15T00:40:23.855Z,8.56
2019-03-15T00:41:23.841Z,8.62
2019-03-15T00:42:23.808Z,8.68
2019-03-15T00:43:23.781Z,8.63
2019-03-15T00:44:23.782Z,8.68
2019-03-15T00:45:23.738Z,8.59
2019-03-15T00:46:23.900Z,8.70
2019-03-15T00:47:23.698Z,8.66
2019-03-15T00:48:23.684Z,8.61
2019-03-15T00:49:23.658Z,8.73
2019-03-15T00:50:23.632Z,8.65
2019-03-15T00:51:23.634Z,8.70
2019-03-15T00:52:23.596Z,8.58
2019-03-15T00:53:23.576Z,8.55
2019-03-15T00:54:23.554Z,8.63
2019-03-15T00:55:23.529Z,8.59
2019-03-15T00:56:23.515Z,8.68
2019-03-15T00:57:23.510Z,8.77
2019-03-15T00:58:23.469Z,8.70
2019-03-15T00:59:24.032Z,8.70
2019-03-15T01:00:23.424Z,8.74
2019-03-15T01:01:23.409Z,8.70
2019-03-15T01:02:23.386Z,8.79
2019-03-15T01:03:23.383Z,8.74
2019-03-15T01:04:24.004Z,8.73
2019-03-15T01:05:23.352Z,8.74
2019-03-15T01:06:23.311Z,8.68
2019-03-15T01:07:24.022Z,8.70
2019-03-15T01:08:23.991Z,8.76
2019-03-15T01:09:23.231Z,8.76
2019-03-15T01:10:23.220Z,8.76
2019-03-15T01:11:23.196Z,8.71
2019-03-15T01:12:23.178Z,8.74
2019-03-15T01:13:23.148Z,8.63
2019-03-15T01:14:24.979Z,8.70
2019-03-15T01:15:23.110Z,8.71
2019-03-15T01:16:23.089Z,8.70
2019-03-15T01:17:23.072Z,8.61
2019-03-15T01:18:23.050Z,8.62
2019-03-15T01:19:23.028Z,8.58
2019-03-15T01:20:23.023Z,8.59
2019-03-15T01:21:22.987Z,8.56
2019-03-15T01:22:22.976Z,8.58
2019-03-15T01:23:22.961Z,8.61
2019-03-15T01:24:23.522Z,8.61
2019-03-15T01:25:22.903Z,8.59
2019-03-15T01:26:22.888Z,8.53
2019-03-15T01:27:22.885Z,8.63
2019-03-15T01:28:23.053Z,8.70
2019-03-15T01:29:22.822Z,8.58
2019-03-15T01:30:22.794Z,8.53
2019-03-15T01:31:22.779Z,8.76
2019-03-15T01:32:22.773Z,8.63
2019-03-15T01:33:22.735Z,8.58
2019-03-15T01:34:22.718Z,8.55
2019-03-15T01:35:22.692Z,8.48
2019-03-15T01:36:22.677Z,8.50
2019-03-15T01:37:24.488Z,8.45
2019-03-15T01:38:22.650Z,8.50
2019-03-15T01:39:22.624Z,8.50
2019-03-15T01:40:22.597Z,8.56
2019-03-15T01:41:22.569Z,8.61
2019-03-15T01:42:22.546Z,8.48
2019-03-15T01:43:22.530Z,8.53
2019-03-15T01:44:22.498Z,8.47
2019-03-15T01:45:22.501Z,8.55
2019-03-15T01:46:22.479Z,8.56
2019-03-15T01:47:23.134Z,8.58
2019-03-15T01:48:22.421Z,8.50
2019-03-15T01:49:22.416Z,8.53
2019-03-15T01:50:22.378Z,8.58
2019-03-15T01:51:23.000Z,8.50
2019-03-15T01:52:22.337Z,8.55
2019-03-15T01:53:23.442Z,8.55
2019-03-15T01:54:22.293Z,8.52
2019-03-15T01:55:22.275Z,8.58
2019-03-15T01:56:22.254Z,8.48
2019-03-15T01:57:22.330Z,8.45
2019-03-15T01:58:22.212Z,8.43
2019-03-15T01:59:23.004Z,8.36
2019-03-15T02:00:22.167Z,8.37
2019-03-15T02:01:22.163Z,8.26
2019-03-15T02:02:22.390Z,8.36
2019-03-15T02:03:22.112Z,8.22
2019-03-15T02:04:22.084Z,8.34
2019-03-15T02:05:22.060Z,8.36
2019-03-15T02:06:23.986Z,8.43
2019-03-15T02:07:22.016Z,8.38
2019-03-15T02:08:22.013Z,8.38
2019-03-15T02:09:21.975Z,8.38
2019-03-15T02:10:22.583Z,8.43
2019-03-15T02:11:21.935Z,8.43
2019-03-15T02:12:21.990Z,8.44
2019-03-15T02:13:22.523Z,8.44
2019-03-15T02:14:21.871Z,8.37
2019-03-15T02:15:21.855Z,8.41
2019-03-15T02:16:21.845Z,8.38
2019-03-15T02:17:21.811Z,8.37
2019-03-15T02:18:21.787Z,8.38
2019-03-15T02:19:21.764Z,8.34
2019-03-15T02:20:22.521Z,8.40
2019-03-15T02:21:21.726Z,8.43
2019-03-15T02:22:21.699Z,8.48
2019-03-15T02:23:23.224Z,8.41
2019-03-15T02:24:21.675Z,8.44
2019-03-15T02:25:21.639Z,8.43
2019-03-15T02:26:21.613Z,8.43
2019-03-15T02:27:21.593Z,8.44
2019-03-15T02:28:21.574Z,8.43
2019-03-15T02:29:21.576Z,8.50
2019-03-15T02:30:21.567Z,8.44
2019-03-15T02:31:21.509Z,8.47
2019-03-15T02:32:21.519Z,8.50
2019-03-15T02:33:21.483Z,8.48
2019-03-15T02:34:21.459Z,8.50
2019-03-15T02:35:21.425Z,8.45
2019-03-15T02:36:21.424Z,8.38
2019-03-15T02:37:21.427Z,8.33
2019-03-15T02:38:21.383Z,8.41
2019-03-15T02:39:21.343Z,8.45
2019-03-15T02:40:21.378Z,8.38
2019-03-15T02:41:21.299Z,8.40
2019-03-15T02:42:21.287Z,8.36
2019-03-15T02:43:21.259Z,8.30
2019-03-15T02:44:21.989Z,8.37
2019-03-15T02:45:21.214Z,8.38
2019-03-15T02:46:21.207Z,8.44
2019-03-15T02:47:21.176Z,8.44
2019-03-15T02:48:21.171Z,8.53
2019-03-15T02:49:21.138Z,8.58
2019-03-15T02:50:21.110Z,8.58
2019-03-15T02:51:23.321Z,8.56
2019-03-15T02:52:21.065Z,8.62
2019-03-15T02:53:22.991Z,8.50
2019-03-15T02:54:21.043Z,8.50
2019-03-15T02:55:21.252Z,8.50
2019-03-15T02:56:20.982Z,8.52
2019-03-15T02:57:20.959Z,8.48
2019-03-15T02:58:21.057Z,8.52
2019-03-15T02:59:21.131Z,8.50
2019-03-15T03:00:20.915Z,8.45
2019-03-15T03:01:20.879Z,8.48
2019-03-15T03:02:20.855Z,8.48
2019-03-15T03:03:21.001Z,8.55
2019-03-15T03:04:20.828Z,8.44
2019-03-15T03:05:20.793Z,8.48
2019-03-15T03:06:20.772Z,8.44
2019-03-15T03:07:21.175Z,8.58
2019-03-15T03:08:20.727Z,8.48
2019-03-15T03:09:20.725Z,8.48
2019-03-15T03:10:20.710Z,8.50
2019-03-15T03:11:20.779Z,8.45
2019-03-15T03:12:20.648Z,8.55
2019-03-15T03:13:20.621Z,8.48
2019-03-15T03:14:20.606Z,8.52
2019-03-15T03:15:21.540Z,8.59
2019-03-15T03:16:20.576Z,8.48
2019-03-15T03:17:20.544Z,8.53
2019-03-15T03:18:20.534Z,8.52
2019-03-15T03:19:20.495Z,8.48
2019-03-15T03:20:21.207Z,8.47
2019-03-15T03:21:20.461Z,8.37
2019-03-15T03:22:20.454Z,8.38
2019-03-15T03:23:20.422Z,8.36
2019-03-15T03:24:20.425Z,8.26
2019-03-15T03:25:20.367Z,8.33
2019-03-15T03:26:20.350Z,8.40
2019-03-15T03:27:20.330Z,8.43
2019-03-15T03:28:20.308Z,8.40
2019-03-15T03:29:20.408Z,8.28
2019-03-15T03:30:20.268Z,8.40
2019-03-15T03:31:20.254Z,8.34
2019-03-15T03:32:20.224Z,8.30
2019-03-15T03:33:20.203Z,8.41
2019-03-15T03:34:21.035Z,8.38
2019-03-15T03:35:20.159Z,8.43
2019-03-15T03:36:20.138Z,8.40
2019-03-15T03:37:20.119Z,8.41
2019-03-15T03:38:20.098Z,8.43
2019-03-15T03:39:20.095Z,8.37
2019-03-15T03:40:21.140Z,8.44
2019-03-15T03:41:20.035Z,8.38
2019-03-15T03:42:20.186Z,8.34
2019-03-15T03:43:19.987Z,8.34
2019-03-15T03:44:19.969Z,8.45
2019-03-15T03:45:23.178Z,8.44
2019-03-15T03:46:19.945Z,8.41
2019-03-15T03:47:19.916Z,8.41
2019-03-15T03:48:19.885Z,8.48
2019-03-15T03:49:19.864Z,8.48
2019-03-15T03:50:19.844Z,8.58
2019-03-15T03:51:19.818Z,8.53
2019-03-15T03:52:20.504Z,8.50
2019-03-15T03:53:19.791Z,8.47
2019-03-15T03:54:19.755Z,8.44
2019-03-15T03:55:19.733Z,8.45
2019-03-15T03:56:19.722Z,8.45
2019-03-15T03:57:19.693Z,8.41
2019-03-15T03:58:19.689Z,8.40
2019-03-15T03:59:19.652Z,8.47
2019-03-15T04:00:19.628Z,8.38
2019-03-15T04:01:19.612Z,8.44
2019-03-15T04:02:19.596Z,8.38
2019-03-15T04:03:19.565Z,8.44
2019-03-15T04:04:19.566Z,8.23
2019-03-15T04:05:19.530Z,8.34
2019-03-15T04:06:19.509Z,8.38
2019-03-15T04:07:19.488Z,8.30
2019-03-15T04:08:19.465Z,8.30
2019-03-15T04:09:19.470Z,8.33
2019-03-15T04:10:19.421Z,8.33
2019-03-15T04:11:19.398Z,8.40
2019-03-15T04:12:19.394Z,8.19
2019-03-15T04:13:19.368Z,8.20
2019-03-15T04:14:19.368Z,8.20
2019-03-15T04:15:19.315Z,8.23
2019-03-15T04:16:19.290Z,8.19
2019-03-15T04:17:19.277Z,8.20
2019-03-15T04:18:19.252Z,8.18
2019-03-15T04:19:19.308Z,8.22
2019-03-15T04:20:20.503Z,8.33
2019-03-15T04:21:19.188Z,8.30
2019-03-15T04:22:19.167Z,8.26
2019-03-15T04:23:19.148Z,8.41
2019-03-15T04:24:19.125Z,8.25
2019-03-15T04:25:19.103Z,8.36
2019-03-15T04:26:19.096Z,8.36
2019-03-15T04:27:19.062Z,8.33
2019-03-15T04:28:19.042Z,8.40
2019-03-15T04:29:19.020Z,8.34
2019-03-15T04:30:19.002Z,8.38
2019-03-15T04:31:18.991Z,8.40
2019-03-15T04:32:18.959Z,8.38
2019-03-15T04:33:18.933Z,8.37
2019-03-15T04:34:18.931Z,8.38
2019-03-15T04:35:18.888Z,8.36
2019-03-15T04:36:18.870Z,8.36
2019-03-15T04:37:18.845Z,8.41
2019-03-15T04:38:18.843Z,8.29
2019-03-15T04:39:18.803Z,8.38
2019-03-15T04:40:18.787Z,8.37
2019-03-15T04:41:18.765Z,8.38
2019-03-15T04:42:18.738Z,8.40
2019-03-15T04:43:18.723Z,8.25
2019-03-15T04:44:18.717Z,8.40
2019-03-15T04:45:18.683Z,8.26
2019-03-15T04:46:18.678Z,8.34
2019-03-15T04:47:20.506Z,8.37
2019-03-15T04:48:18.617Z,8.29
2019-03-15T04:49:18.597Z,8.26
2019-03-15T04:50:19.511Z,8.28
2019-03-15T04:51:18.565Z,8.26
2019-03-15T04:52:18.553Z,8.40
2019-03-15T04:53:18.508Z,8.38
2019-03-15T04:54:18.488Z,8.44
2019-03-15T04:55:18.471Z,8.40
2019-03-15T04:56:18.442Z,8.25
2019-03-15T04:57:18.427Z,8.34
2019-03-15T04:58:18.427Z,8.23
2019-03-15T04:59:18.379Z,8.33
2019-03-15T05:00:18.367Z,8.33
2019-03-15T05:01:18.344Z,8.33
2019-03-15T05:02:18.323Z,8.38
2019-03-15T05:03:18.311Z,8.41
2019-03-15T05:04:18.276Z,8.36
2019-03-15T05:05:18.254Z,8.38
2019-03-15T05:06:18.232Z,8.30
2019-03-15T05:07:18.214Z,8.37
2019-03-15T05:08:18.192Z,8.37
2019-03-15T05:09:18.192Z,8.44
2019-03-15T05:10:18.157Z,8.36
2019-03-15T05:11:18.138Z,8.47
2019-03-15T05:12:18.107Z,8.40
2019-03-15T05:13:18.087Z,8.44
2019-03-15T05:14:18.082Z,8.48
2019-03-15T05:15:18.071Z,8.48
2019-03-15T05:16:18.026Z,8.61
2019-03-15T05:17:18.012Z,8.56
2019-03-15T05:18:17.995Z,8.53
2019-03-15T05:19:18.078Z,8.59
2019-03-15T05:20:21.032Z,8.52
2019-03-15T05:21:17.914Z,8.66
2019-03-15T05:22:18.511Z,8.53
2019-03-15T05:23:17.874Z,8.58
2019-03-15T05:24:17.871Z,8.53
2019-03-15T05:25:17.834Z,8.52
2019-03-15T05:26:19.512Z,8.55
2019-03-15T05:27:17.788Z,8.53
2019-03-15T05:28:17.769Z,8.52
2019-03-15T05:29:17.754Z,8.50
2019-03-15T05:30:17.727Z,8.43
2019-03-15T05:31:17.706Z,8.40
2019-03-15T05:32:17.728Z,8.38
2019-03-15T05:33:17.663Z,8.38
2019-03-15T05:34:17.642Z,8.44
2019-03-15T05:35:17.624Z,8.41
2019-03-15T05:36:17.621Z,8.48
2019-03-15T05:37:17.580Z,8.43
2019-03-15T05:38:17.563Z,8.38
2019-03-15T05:39:17.544Z,8.38
2019-03-15T05:40:17.527Z,8.40
2019-03-15T05:41:17.496Z,8.38
2019-03-15T05:42:17.492Z,8.37
2019-03-15T05:43:18.055Z,8.36
2019-03-15T05:44:17.429Z,8.41
2019-03-15T05:45:17.409Z,8.23
2019-03-15T05:46:17.389Z,8.28
2019-03-15T05:47:17.382Z,8.22
2019-03-15T05:48:17.371Z,8.26
2019-03-15T05:49:17.324Z,8.18
2019-03-15T05:50:17.303Z,8.23
2019-03-15T05:51:17.281Z,8.33
2019-03-15T05:52:17.260Z,8.28
2019-03-15T05:53:17.256Z,8.20
2019-03-15T05:54:17.216Z,8.30
2019-03-15T05:55:17.207Z,8.37
2019-03-15T05:56:18.060Z,8.36
2019-03-15T05:57:17.182Z,8.26
2019-03-15T05:58:17.136Z,8.33
2019-03-15T05:59:17.112Z,8.25
2019-03-15T06:00:17.090Z,8.34
2019-03-15T06:01:17.071Z,8.29
2019-03-15T06:02:17.048Z,8.37
2019-03-15T06:03:17.557Z,8.40
2019-03-15T06:04:17.008Z,8.36
2019-03-15T06:05:17.000Z,8.37
2019-03-15T06:06:16.989Z,8.37
2019-03-15T06:07:16.947Z,8.34
2019-03-15T06:08:16.949Z,8.36
2019-03-15T06:09:16.902Z,8.47
2019-03-15T06:10:16.896Z,8.43
2019-03-15T06:11:16.858Z,8.47
2019-03-15T06:12:16.846Z,8.43
2019-03-15T06:13:16.819Z,8.43
2019-03-15T06:14:16.791Z,8.38
2019-03-15T06:16:59.000Z,8.43
2019-03-15T06:17:58.980Z,8.48
2019-03-15T06:18:58.941Z,8.44
2019-03-15T06:19:58.924Z,8.47
2019-03-15T06:20:58.934Z,8.48
2019-03-15T06:22:00.522Z,8.44
2019-03-15T06:22:58.888Z,8.48
2019-03-15T06:23:58.840Z,8.48
2019-03-15T06:24:58.815Z,8.52
2019-03-15T06:25:58.812Z,8.52
2019-03-15T06:26:58.774Z,8.50
2019-03-15T06:27:58.755Z,8.53
2019-03-15T06:29:01.492Z,8.55
2019-03-15T06:29:58.726Z,8.50
2019-03-15T06:30:58.690Z,8.44
2019-03-15T06:32:00.530Z,8.50
2019-03-15T06:32:58.646Z,8.56
2019-03-15T06:33:58.623Z,8.52
2019-03-15T06:34:58.610Z,8.50
2019-03-15T06:35:58.609Z,8.45
2019-03-15T06:36:58.564Z,8.50
2019-03-15T06:37:58.542Z,8.47
2019-03-15T06:38:58.520Z,8.50
2019-03-15T06:39:58.495Z,8.44
2019-03-15T06:40:58.477Z,8.53
2019-03-15T06:41:58.475Z,8.47
2019-03-15T06:42:58.436Z,8.45
2019-03-15T06:43:58.409Z,8.44
2019-03-15T06:44:58.434Z,8.41
2019-03-15T06:45:58.370Z,8.45
2019-03-15T06:46:58.349Z,8.40
2019-03-15T06:47:58.344Z,8.38
2019-03-15T06:48:58.311Z,8.38
2019-03-15T06:49:58.284Z,8.34
2019-03-15T06:50:58.263Z,8.41
2019-03-15T06:51:58.260Z,8.37
2019-03-15T06:52:58.238Z,8.38
2019-03-15T06:54:10.894Z,8.28
2019-03-15T06:54:58.177Z,8.29
2019-03-15T06:55:58.155Z,8.36
2019-03-15T06:56:58.136Z,8.38
2019-03-15T06:57:58.134Z,8.37
2019-03-15T06:58:58.091Z,8.37
2019-03-15T06:59:59.562Z,8.34
2019-03-15T07:00:58.564Z,8.37
2019-03-15T07:01:58.560Z,8.34
2019-03-15T07:02:58.010Z,8.25
2019-03-15T07:03:58.015Z,8.30
2019-03-15T07:04:57.969Z,8.33
2019-03-15T07:07:51.996Z,8.34
2019-03-15T07:08:51.991Z,8.36
2019-03-15T07:09:51.974Z,8.43
2019-03-15T07:10:51.930Z,8.47
2019-03-15T07:11:51.907Z,8.40
2019-03-15T07:12:51.885Z,8.38
2019-03-15T07:13:51.869Z,8.48
2019-03-15T07:14:51.845Z,8.43
2019-03-15T07:15:51.852Z,8.40
2019-03-15T07:16:51.807Z,8.43
2019-03-15T07:17:51.780Z,8.36
2019-03-15T07:18:51.766Z,8.40
2019-03-15T07:19:51.738Z,8.52
2019-03-15T07:20:51.757Z,8.41
2019-03-15T07:21:51.695Z,8.45
2019-03-15T07:22:51.679Z,8.55
2019-03-15T07:23:51.655Z,8.56
2019-03-15T07:24:51.639Z,8.58
2019-03-15T07:25:53.529Z,8.52
2019-03-15T07:26:51.619Z,8.62
2019-03-15T07:27:51.571Z,8.59
2019-03-15T07:28:51.602Z,8.52
2019-03-15T07:29:51.529Z,8.59
2019-03-15T07:30:51.535Z,8.59
2019-03-15T07:31:51.487Z,8.61
2019-03-15T07:32:51.482Z,8.52
2019-03-15T07:33:52.530Z,8.48
2019-03-15T07:34:51.429Z,8.44
2019-03-15T07:35:51.417Z,8.44
2019-03-15T07:36:55.299Z,8.40
2019-03-15T07:37:51.390Z,8.47
2019-03-15T07:38:51.344Z,8.50
2019-03-15T07:39:52.057Z,8.50
2019-03-15T07:40:51.295Z,8.50
2019-03-15T07:41:51.279Z,8.44
2019-03-15T07:42:51.255Z,8.47
2019-03-15T07:43:51.255Z,8.50
2019-03-15T07:44:51.248Z,8.45
2019-03-15T07:45:51.189Z,8.44
2019-03-15T07:46:51.299Z,8.44
2019-03-15T07:47:52.032Z,8.44
2019-03-15T07:48:52.051Z,8.48
2019-03-15T07:49:51.135Z,8.48
2019-03-15T07:50:51.091Z,8.43
2019-03-15T07:51:51.066Z,8.53
2019-03-15T07:52:51.042Z,8.50
2019-03-15T07:53:52.033Z,8.56
2019-03-15T07:54:51.008Z,8.58
2019-03-15T07:55:51.001Z,8.58
2019-03-15T07:56:50.960Z,8.55
2019-03-15T07:57:50.942Z,8.59
2019-03-15T07:58:50.938Z,8.59
2019-03-15T07:59:51.572Z,8.59
2019-03-15T08:00:50.880Z,8.59
2019-03-15T08:01:52.797Z,8.58
2019-03-15T08:02:51.559Z,8.55
2019-03-15T08:03:50.824Z,8.66
2019-03-15T08:04:52.534Z,8.66
2019-03-15T08:05:50.776Z,8.73
2019-03-15T08:06:50.776Z,8.70
2019-03-15T08:07:50.732Z,8.76
2019-03-15T08:08:50.711Z,8.81
2019-03-15T08:09:51.174Z,8.73
2019-03-15T08:10:50.669Z,8.83
2019-03-15T08:11:50.657Z,8.84
2019-03-15T08:12:50.640Z,8.79
2019-03-15T08:13:50.601Z,8.87
2019-03-15T08:14:50.584Z,8.86
2019-03-15T08:15:50.559Z,8.87
2019-03-15T08:16:51.066Z,8.86
2019-03-15T08:17:51.068Z,8.94
2019-03-15T08:18:50.515Z,8.95
2019-03-15T08:19:50.492Z,8.99
2019-03-15T08:20:50.469Z,9.02
2019-03-15T08:21:50.443Z,9.05
2019-03-15T08:22:50.443Z,9.01
2019-03-15T08:23:50.401Z,9.04
2019-03-15T08:24:51.672Z,8.99
2019-03-15T08:25:50.685Z,9.10
2019-03-15T08:26:50.434Z,9.14
2019-03-15T08:27:50.333Z,9.24
2019-03-15T08:28:50.289Z,9.26
2019-03-15T08:29:52.602Z,9.20
2019-03-15T08:30:50.246Z,9.32
2019-03-15T08:31:50.234Z,9.31
2019-03-15T08:32:50.204Z,9.31
2019-03-15T08:33:50.202Z,9.42
2019-03-15T08:34:50.166Z,9.43
2019-03-15T08:35:50.142Z,9.43
2019-03-15T08:36:50.123Z,9.48
2019-03-15T08:37:50.124Z,9.48
2019-03-15T08:38:50.108Z,9.48
2019-03-15T08:39:50.066Z,9.53
2019-03-15T08:40:50.057Z,9.64
2019-03-15T08:41:50.017Z,9.61
2019-03-15T08:42:50.001Z,9.58
2019-03-15T08:43:50.579Z,9.75
2019-03-15T08:44:49.975Z,9.84
2019-03-15T08:45:49.936Z,9.87
2019-03-15T08:46:49.919Z,9.89
2019-03-15T08:47:49.994Z,9.84
2019-03-15T08:48:49.888Z,9.96
2019-03-15T08:49:49.857Z,10.05
2019-03-15T08:50:49.847Z,10.04
2019-03-15T08:52:03.085Z,10.08
2019-03-15T08:52:49.793Z,10.07
2019-03-15T08:53:49.772Z,10.23
2019-03-15T08:54:49.770Z,10.17
2019-03-15T08:55:49.731Z,10.27
2019-03-15T08:56:49.756Z,10.30
2019-03-15T08:57:49.690Z,10.33
2019-03-15T08:58:49.673Z,10.41
2019-03-15T08:59:57.032Z,10.40
2019-03-15T09:00:49.679Z,10.44
2019-03-15T09:01:49.608Z,10.47
2019-03-15T09:02:50.542Z,10.47
2019-03-15T09:03:49.566Z,10.55
2019-03-15T09:04:50.550Z,10.53
2019-03-15T09:05:49.532Z,10.59
2019-03-15T09:06:49.510Z,10.63
2019-03-15T09:07:49.509Z,10.70
2019-03-15T09:08:49.469Z,10.73
2019-03-15T09:09:49.448Z,10.73
2019-03-15T09:10:49.436Z,10.81
2019-03-15T09:11:49.409Z,10.81
2019-03-15T09:12:49.390Z,10.76
2019-03-15T09:13:49.520Z,10.84
2019-03-15T09:14:49.351Z,10.81
2019-03-15T09:15:49.331Z,10.91
2019-03-15T09:16:49.313Z,10.92
2019-03-15T09:17:49.290Z,10.99
2019-03-15T09:18:49.291Z,10.96
2019-03-15T09:19:49.253Z,10.99
2019-03-15T09:20:49.227Z,10.97
2019-03-15T09:21:49.228Z,11.00
2019-03-15T09:22:49.196Z,11.06
2019-03-15T09:23:49.165Z,11.02
2019-03-15T09:24:49.156Z,11.04
2019-03-15T09:25:49.131Z,11.11
2019-03-15T09:26:49.109Z,11.17
2019-03-15T09:27:49.138Z,11.09
2019-03-15T09:28:51.048Z,11.10
2019-03-15T09:29:49.053Z,11.11
2019-03-15T09:30:49.037Z,11.18
2019-03-15T09:31:49.018Z,11.15
2019-03-15T09:32:48.994Z,11.18
2019-03-15T09:33:48.997Z,11.21
2019-03-15T09:34:48.963Z,11.22
2019-03-15T09:35:48.953Z,11.33
2019-03-15T09:36:50.347Z,11.29
2019-03-15T09:37:48.926Z,11.29
2019-03-15T09:38:48.892Z,11.27
2019-03-15T09:39:48.855Z,11.37
2019-03-15T09:40:48.835Z,11.42
2019-03-15T09:41:48.824Z,11.40
2019-03-15T09:42:48.798Z,11.43
2019-03-15T09:43:48.801Z,11.36
2019-03-15T09:44:48.757Z,11.43
2019-03-15T09:45:48.743Z,11.42
2019-03-15T09:46:48.722Z,11.42
2019-03-15T09:47:48.699Z,11.44
2019-03-15T09:48:48.680Z,11.49
2019-03-15T09:49:48.697Z,11.49
2019-03-15T09:50:51.442Z,11.44
2019-03-15T09:51:48.660Z,11.49
2019-03-15T09:52:50.552Z,11.49
2019-03-15T09:53:48.582Z,11.52
2019-03-15T09:54:48.567Z,11.57
2019-03-15T09:55:49.091Z,11.58
2019-03-15T09:56:48.527Z,11.57
2019-03-15T09:57:48.519Z,11.62
2019-03-15T09:58:48.495Z,11.61
2019-03-15T09:59:48.469Z,11.62
2019-03-15T10:00:49.554Z,11.69
2019-03-15T10:01:48.428Z,11.73
2019-03-15T10:02:48.407Z,11.72
2019-03-15T10:03:48.424Z,11.72
2019-03-15T10:04:48.377Z,11.80
2019-03-15T10:05:48.376Z,11.79
2019-03-15T10:06:48.337Z,11.80
2019-03-15T10:07:48.314Z,11.83
2019-03-15T10:08:48.318Z,11.75
2019-03-15T10:09:48.291Z,11.79
2019-03-15T10:10:49.330Z,11.80
2019-03-15T10:11:48.240Z,11.79
2019-03-15T10:12:48.240Z,11.79
2019-03-15T10:13:48.201Z,11.82
2019-03-15T10:14:48.181Z,11.80
2019-03-15T10:15:48.295Z,11.82
2019-03-15T10:16:48.284Z,11.82
2019-03-15T10:17:48.146Z,11.79
2019-03-15T10:18:50.564Z,11.90
2019-03-15T10:19:48.083Z,11.91
2019-03-15T10:20:48.072Z,11.88
2019-03-15T10:21:48.059Z,11.90
2019-03-15T10:23:03.979Z,11.86
2019-03-15T10:23:48.007Z,11.88
2019-03-15T10:24:47.989Z,11.85
2019-03-15T10:25:51.156Z,11.95
2019-03-15T10:26:47.967Z,11.91
2019-03-15T10:27:47.937Z,11.91
2019-03-15T10:28:47.917Z,11.80
2019-03-15T10:29:47.903Z,11.88
2019-03-15T10:30:47.872Z,11.91
2019-03-15T10:31:47.857Z,11.88
2019-03-15T10:32:47.856Z,11.86
2019-03-15T10:33:50.806Z,11.88
2019-03-15T10:34:47.799Z,11.85
2019-03-15T10:35:47.777Z,11.91
2019-03-15T10:36:49.562Z,11.90
2019-03-15T10:37:47.741Z,11.96
2019-03-15T10:38:47.738Z,11.99
2019-03-15T10:39:47.702Z,11.88
2019-03-15T10:40:47.682Z,11.99
2019-03-15T10:41:47.663Z,11.99
2019-03-15T10:42:47.642Z,11.90
2019-03-15T10:43:47.629Z,11.95
2019-03-15T10:44:47.620Z,11.88
2019-03-15T10:45:47.585Z,11.99
2019-03-15T10:46:47.565Z,11.94
2019-03-15T10:47:48.080Z,11.96
2019-03-15T10:48:47.546Z,11.99
2019-03-15T10:49:47.538Z,12.05
2019-03-15T10:50:47.501Z,12.04
2019-03-15T10:51:47.468Z,12.05
2019-03-15T10:52:47.454Z,12.07
2019-03-15T10:53:47.432Z,12.04
2019-03-15T10:54:47.430Z,12.01
2019-03-15T10:55:59.505Z,12.14
2019-03-15T10:56:47.383Z,12.17
2019-03-15T10:57:47.357Z,12.19
2019-03-15T10:58:47.332Z,12.17
2019-03-15T10:59:47.338Z,12.10
2019-03-15T11:00:47.290Z,12.24
2019-03-15T11:01:47.279Z,12.20
2019-03-15T11:02:47.262Z,12.13
2019-03-15T11:03:47.249Z,12.20
2019-03-15T11:04:48.108Z,12.21
2019-03-15T11:05:47.223Z,12.24
2019-03-15T11:06:47.179Z,12.32
2019-03-15T11:07:47.160Z,12.39
2019-03-15T11:08:47.151Z,12.35
2019-03-15T11:09:47.127Z,12.34
2019-03-15T11:10:47.109Z,12.34
2019-03-15T11:11:47.108Z,12.39
2019-03-15T11:12:47.064Z,12.37
2019-03-15T11:13:47.053Z,12.46
2019-03-15T11:14:47.031Z,12.41
2019-03-15T11:15:47.055Z,12.39
2019-03-15T11:16:47.004Z,12.59
2019-03-15T11:17:47.003Z,12.46
2019-03-15T11:18:46.954Z,12.57
2019-03-15T11:19:46.988Z,12.52
2019-03-15T11:20:46.946Z,12.56
2019-03-15T11:21:47.647Z,12.56
2019-03-15T11:22:46.873Z,12.65
2019-03-15T11:23:46.862Z,12.57
2019-03-15T11:24:46.839Z,12.65
2019-03-15T11:25:46.821Z,12.53
2019-03-15T11:26:46.821Z,12.56
2019-03-15T11:27:46.794Z,12.59
2019-03-15T11:28:46.767Z,12.59
2019-03-15T11:29:46.753Z,12.65
2019-03-15T11:30:46.728Z,12.62
2019-03-15T11:31:46.725Z,12.67
2019-03-15T11:32:46.692Z,12.65
2019-03-15T11:33:47.558Z,12.72
2019-03-15T11:34:46.649Z,12.71
2019-03-15T11:35:46.633Z,12.71
2019-03-15T11:36:57.738Z,12.77
2019-03-15T11:37:46.614Z,12.78
2019-03-15T11:38:46.581Z,12.85
2019-03-15T11:39:46.576Z,12.86
2019-03-15T11:40:46.540Z,12.79
2019-03-15T11:41:46.526Z,12.74
2019-03-15T11:42:46.508Z,12.77
2019-03-15T11:43:46.483Z,12.85
2019-03-15T11:44:46.467Z,12.78
2019-03-15T11:45:46.478Z,12.79
2019-03-15T11:46:46.486Z,12.82
2019-03-15T11:48:02.596Z,12.87
2019-03-15T11:48:47.124Z,12.78
2019-03-15T11:49:48.076Z,12.87
2019-03-15T11:50:46.356Z,12.89
2019-03-15T11:51:46.362Z,13.01
2019-03-15T11:52:47.078Z,13.03
2019-03-15T11:53:46.303Z,13.00
2019-03-15T11:54:49.586Z,13.08
2019-03-15T11:55:46.256Z,13.11
2019-03-15T11:56:46.245Z,13.11
2019-03-15T11:57:46.245Z,13.11
2019-03-15T11:58:46.216Z,13.20
2019-03-15T11:59:46.187Z,13.12
2019-03-15T12:00:46.171Z,13.25
2019-03-15T12:01:46.165Z,13.22
2019-03-15T12:02:46.133Z,13.28
2019-03-15T12:03:52.910Z,13.33
2019-03-15T12:04:46.109Z,13.32
2019-03-15T12:05:46.093Z,13.39
2019-03-15T12:06:46.074Z,13.42
2019-03-15T12:07:46.039Z,13.62
2019-03-15T12:08:46.034Z,13.67
2019-03-15T12:09:46.002Z,13.85
2019-03-15T12:10:45.986Z,13.89
2019-03-15T12:11:45.967Z,13.95
2019-03-15T12:12:45.975Z,14.00
2019-03-15T12:13:45.930Z,14.03
2019-03-15T12:14:45.923Z,14.06
2019-03-15T12:15:45.901Z,13.96
2019-03-15T12:16:45.894Z,13.99
2019-03-15T12:17:45.869Z,13.97
2019-03-15T12:18:45.867Z,13.85
2019-03-15T12:19:45.822Z,13.71
2019-03-15T12:20:49.003Z,13.64
2019-03-15T12:21:45.791Z,13.77
2019-03-15T12:22:45.776Z,13.62
2019-03-15T12:23:45.779Z,13.59
2019-03-15T12:24:45.761Z,13.45
2019-03-15T12:25:47.610Z,13.45
2019-03-15T12:26:45.709Z,13.46
2019-03-15T12:27:45.728Z,13.44
2019-03-15T12:28:45.671Z,13.51
2019-03-15T12:29:45.654Z,13.59
2019-03-15T12:30:45.649Z,13.70
2019-03-15T12:31:45.618Z,13.89
2019-03-15T12:32:45.604Z,14.15
2019-03-15T12:34:13.171Z,14.20
2019-03-15T12:34:45.561Z,14.25
2019-03-15T12:35:45.571Z,14.36
2019-03-15T12:36:45.581Z,14.52
2019-03-15T12:37:45.521Z,14.65
2019-03-15T12:38:45.495Z,14.72
2019-03-15T12:39:45.479Z,14.54
2019-03-15T12:40:45.492Z,14.70
2019-03-15T12:41:45.453Z,14.50
2019-03-15T12:42:45.425Z,14.68
2019-03-15T12:43:45.411Z,14.96
2019-03-15T12:44:45.399Z,15.32
2019-03-15T12:45:45.406Z,15.23
2019-03-15T12:46:46.132Z,14.88
2019-03-15T12:47:46.095Z,14.83
2019-03-15T12:48:45.334Z,14.72
2019-03-15T12:49:45.322Z,14.42
2019-03-15T12:50:45.307Z,14.33
2019-03-15T12:51:45.300Z,14.33
2019-03-15T12:52:48.019Z,14.25
2019-03-15T12:53:45.251Z,14.25
2019-03-15T12:54:45.233Z,14.21
2019-03-15T12:55:45.217Z,14.27
2019-03-15T12:56:53.690Z,14.36
2019-03-15T12:57:45.203Z,14.47
2019-03-15T12:58:45.166Z,14.55
2019-03-15T12:59:45.184Z,14.64
2019-03-15T13:00:45.142Z,14.64
2019-03-15T13:01:45.134Z,14.77
2019-03-15T13:02:45.123Z,14.94
2019-03-15T13:03:45.087Z,14.95
2019-03-15T13:04:45.074Z,14.89
2019-03-15T13:05:45.063Z,14.75
2019-03-15T13:06:45.046Z,14.55
2019-03-15T13:07:45.034Z,14.60
2019-03-15T13:08:47.288Z,14.54
2019-03-15T13:09:44.996Z,14.54
2019-03-15T13:10:44.973Z,14.52
2019-03-15T13:11:44.957Z,14.52
2019-03-15T13:12:44.939Z,14.42